sensor_id;sensor_type;location;lat;lon;timestamp;P1;durP1;ratioP1;P2;durP2;ratioP2
36253;SDS011;22291;52.250;21.228;2022-12-18T00:01:16;46.70;;;21.30;;
36253;SDS011;22291;52.250;21.228;2022-12-18T00:03:46;51.50;;;22.20;;
36253;SDS011;22291;52.250;21.228;2022-12-18T00:06:14;49.77;;;21.27;;
36253;SDS011;22291;52.250;21.228;2022-12-18T00:08:42;45.83;;;22.02;;
36253;SDS011;22291;52.250;21.228;2022-12-18T00:11:11;46.08;;;21.15;;
36253;SDS011;22291;52.250;21.228;2022-12-18T00:13:41;49.50;;;22.98;;
36253;SDS011;22291;52.250;21.228;2022-12-18T00:16:10;47.25;;;21.65;;
36253;SDS011;22291;52.250;21.228;2022-12-18T00:18:40;48.40;;;22.35;;
36253;SDS011;22291;52.250;21.228;2022-12-18T00:21:09;50.30;;;21.40;;
36253;SDS011;22291;52.250;21.228;2022-12-18T00:26:06;42.85;;;20.15;;
36253;SDS011;22291;52.250;21.228;2022-12-18T00:28:36;49.18;;;22.35;;
36253;SDS011;22291;52.250;21.228;2022-12-18T00:31:08;50.25;;;23.50;;
36253;SDS011;22291;52.250;21.228;2022-12-18T00:33:35;46.37;;;23.20;;
36253;SDS011;22291;52.250;21.228;2022-12-18T00:36:06;44.58;;;21.45;;
36253;SDS011;22291;52.250;21.228;2022-12-18T00:38:38;53.92;;;23.50;;
36253;SDS011;22291;52.250;21.228;2022-12-18T00:41:05;44.83;;;21.70;;
36253;SDS011;22291;52.250;21.228;2022-12-18T00:43:34;49.75;;;22.93;;
36253;SDS011;22291;52.250;21.228;2022-12-18T00:46:02;46.23;;;22.73;;
36253;SDS011;22291;52.250;21.228;2022-12-18T00:48:28;46.08;;;22.55;;
36253;SDS011;22291;52.250;21.228;2022-12-18T00:50:55;43.55;;;22.02;;
36253;SDS011;22291;52.250;21.228;2022-12-18T00:53:21;44.90;;;21.35;;
36253;SDS011;22291;52.250;21.228;2022-12-18T00:55:48;43.25;;;20.65;;
36253;SDS011;22291;52.250;21.228;2022-12-18T00:58:14;47.48;;;21.97;;
36253;SDS011;22291;52.250;21.228;2022-12-18T01:00:43;39.92;;;20.70;;
36253;SDS011;22291;52.250;21.228;2022-12-18T01:03:10;46.20;;;20.43;;
36253;SDS011;22291;52.250;21.228;2022-12-18T01:05:41;44.38;;;19.90;;
36253;SDS011;22291;52.250;21.228;2022-12-18T01:08:08;38.58;;;19.05;;
36253;SDS011;22291;52.250;21.228;2022-12-18T01:10:34;42.35;;;19.15;;
36253;SDS011;22291;52.250;21.228;2022-12-18T01:13:00;41.77;;;18.80;;
36253;SDS011;22291;52.250;21.228;2022-12-18T01:15:26;40.45;;;18.10;;
36253;SDS011;22291;52.250;21.228;2022-12-18T01:17:53;45.12;;;18.37;;
36253;SDS011;22291;52.250;21.228;2022-12-18T01:20:20;40.20;;;18.57;;
36253;SDS011;22291;52.250;21.228;2022-12-18T01:22:47;38.55;;;18.45;;
36253;SDS011;22291;52.250;21.228;2022-12-18T01:25:13;39.10;;;18.67;;
36253;SDS011;22291;52.250;21.228;2022-12-18T01:27:39;37.13;;;18.20;;
36253;SDS011;22291;52.250;21.228;2022-12-18T01:30:06;37.53;;;17.15;;
36253;SDS011;22291;52.250;21.228;2022-12-18T01:32:34;38.85;;;17.25;;
36253;SDS011;22291;52.250;21.228;2022-12-18T01:35:00;38.23;;;17.37;;
36253;SDS011;22291;52.250;21.228;2022-12-18T01:37:27;37.67;;;18.90;;
36253;SDS011;22291;52.250;21.228;2022-12-18T01:39:53;41.77;;;19.32;;
36253;SDS011;22291;52.250;21.228;2022-12-18T01:42:20;38.98;;;18.60;;
36253;SDS011;22291;52.250;21.228;2022-12-18T01:50:36;34.78;;;17.10;;
36253;SDS011;22291;52.250;21.228;2022-12-18T01:53:07;34.33;;;17.92;;
36253;SDS011;22291;52.250;21.228;2022-12-18T01:55:43;45.05;;;18.48;;
36253;SDS011;22291;52.250;21.228;2022-12-18T01:58:18;34.80;;;17.07;;
36253;SDS011;22291;52.250;21.228;2022-12-18T02:00:46;36.68;;;15.98;;
36253;SDS011;22291;52.250;21.228;2022-12-18T02:03:12;32.13;;;15.58;;
36253;SDS011;22291;52.250;21.228;2022-12-18T02:08:34;34.00;;;16.73;;
36253;SDS011;22291;52.250;21.228;2022-12-18T02:17:17;33.58;;;16.35;;
36253;SDS011;22291;52.250;21.228;2022-12-18T02:28:40;32.83;;;15.90;;
36253;SDS011;22291;52.250;21.228;2022-12-18T02:31:06;31.68;;;14.47;;
36253;SDS011;22291;52.250;21.228;2022-12-18T02:33:37;36.23;;;15.95;;
36253;SDS011;22291;52.250;21.228;2022-12-18T02:36:05;37.10;;;17.35;;
36253;SDS011;22291;52.250;21.228;2022-12-18T02:38:33;34.38;;;16.23;;
36253;SDS011;22291;52.250;21.228;2022-12-18T02:41:02;39.75;;;16.67;;
36253;SDS011;22291;52.250;21.228;2022-12-18T02:43:30;35.25;;;17.23;;
36253;SDS011;22291;52.250;21.228;2022-12-18T02:45:57;38.08;;;17.07;;
36253;SDS011;22291;52.250;21.228;2022-12-18T02:48:29;36.35;;;16.37;;
36253;SDS011;22291;52.250;21.228;2022-12-18T02:53:58;38.10;;;18.37;;
36253;SDS011;22291;52.250;21.228;2022-12-18T02:56:30;38.83;;;17.70;;
36253;SDS011;22291;52.250;21.228;2022-12-18T02:59:15;42.08;;;19.25;;
36253;SDS011;22291;52.250;21.228;2022-12-18T03:02:08;38.78;;;18.73;;
36253;SDS011;22291;52.250;21.228;2022-12-18T03:04:55;42.38;;;19.70;;
36253;SDS011;22291;52.250;21.228;2022-12-18T03:07:35;40.20;;;18.12;;
36253;SDS011;22291;52.250;21.228;2022-12-18T03:10:07;34.92;;;16.60;;
36253;SDS011;22291;52.250;21.228;2022-12-18T03:12:38;42.85;;;18.02;;
36253;SDS011;22291;52.250;21.228;2022-12-18T03:15:11;38.85;;;17.87;;
36253;SDS011;22291;52.250;21.228;2022-12-18T03:17:43;35.92;;;15.83;;
36253;SDS011;22291;52.250;21.228;2022-12-18T03:20:29;35.63;;;16.90;;
36253;SDS011;22291;52.250;21.228;2022-12-18T03:23:01;33.50;;;17.10;;
36253;SDS011;22291;52.250;21.228;2022-12-18T03:25:38;32.75;;;16.12;;
36253;SDS011;22291;52.250;21.228;2022-12-18T03:28:09;32.50;;;15.30;;
36253;SDS011;22291;52.250;21.228;2022-12-18T03:30:39;28.60;;;14.30;;
36253;SDS011;22291;52.250;21.228;2022-12-18T03:33:10;35.40;;;17.02;;
36253;SDS011;22291;52.250;21.228;2022-12-18T03:35:49;31.85;;;16.15;;
36253;SDS011;22291;52.250;21.228;2022-12-18T03:38:16;30.25;;;14.87;;
36253;SDS011;22291;52.250;21.228;2022-12-18T03:40:52;31.73;;;15.10;;
36253;SDS011;22291;52.250;21.228;2022-12-18T03:49:23;30.00;;;14.87;;
36253;SDS011;22291;52.250;21.228;2022-12-18T03:52:01;30.00;;;15.28;;
36253;SDS011;22291;52.250;21.228;2022-12-18T03:54:34;33.83;;;14.87;;
36253;SDS011;22291;52.250;21.228;2022-12-18T03:57:04;30.52;;;14.78;;
36253;SDS011;22291;52.250;21.228;2022-12-18T03:59:34;29.18;;;15.43;;
36253;SDS011;22291;52.250;21.228;2022-12-18T04:02:02;28.20;;;14.95;;
36253;SDS011;22291;52.250;21.228;2022-12-18T04:04:34;28.80;;;14.38;;
36253;SDS011;22291;52.250;21.228;2022-12-18T04:07:03;30.12;;;14.70;;
36253;SDS011;22291;52.250;21.228;2022-12-18T04:09:31;28.15;;;14.53;;
36253;SDS011;22291;52.250;21.228;2022-12-18T04:11:59;29.50;;;13.90;;
36253;SDS011;22291;52.250;21.228;2022-12-18T04:14:25;31.23;;;15.20;;
36253;SDS011;22291;52.250;21.228;2022-12-18T04:16:52;25.90;;;14.13;;
36253;SDS011;22291;52.250;21.228;2022-12-18T04:19:18;30.00;;;13.85;;
36253;SDS011;22291;52.250;21.228;2022-12-18T04:21:44;31.35;;;13.85;;
36253;SDS011;22291;52.250;21.228;2022-12-18T04:24:11;29.55;;;14.98;;
36253;SDS011;22291;52.250;21.228;2022-12-18T04:26:37;27.17;;;13.53;;
36253;SDS011;22291;52.250;21.228;2022-12-18T04:29:03;29.70;;;15.15;;
36253;SDS011;22291;52.250;21.228;2022-12-18T04:31:30;27.32;;;13.53;;
36253;SDS011;22291;52.250;21.228;2022-12-18T04:33:56;31.80;;;14.85;;
36253;SDS011;22291;52.250;21.228;2022-12-18T04:36:23;27.73;;;14.05;;
36253;SDS011;22291;52.250;21.228;2022-12-18T04:38:53;25.27;;;13.35;;
36253;SDS011;22291;52.250;21.228;2022-12-18T04:41:19;27.85;;;14.03;;
36253;SDS011;22291;52.250;21.228;2022-12-18T04:43:45;28.55;;;13.90;;
36253;SDS011;22291;52.250;21.228;2022-12-18T04:46:12;27.35;;;13.22;;
36253;SDS011;22291;52.250;21.228;2022-12-18T04:48:38;24.37;;;13.45;;
36253;SDS011;22291;52.250;21.228;2022-12-18T04:51:05;28.90;;;14.63;;
36253;SDS011;22291;52.250;21.228;2022-12-18T04:53:33;29.90;;;13.68;;
36253;SDS011;22291;52.250;21.228;2022-12-18T04:56:07;29.65;;;13.80;;
36253;SDS011;22291;52.250;21.228;2022-12-18T04:58:36;29.67;;;14.45;;
36253;SDS011;22291;52.250;21.228;2022-12-18T05:01:04;28.70;;;13.98;;
36253;SDS011;22291;52.250;21.228;2022-12-18T05:03:33;19.67;;;10.10;;
36253;SDS011;22291;52.250;21.228;2022-12-18T05:06:00;31.55;;;13.68;;
36253;SDS011;22291;52.250;21.228;2022-12-18T05:08:27;28.62;;;14.33;;
36253;SDS011;22291;52.250;21.228;2022-12-18T05:11:00;29.67;;;14.15;;
36253;SDS011;22291;52.250;21.228;2022-12-18T05:13:29;30.32;;;13.85;;
36253;SDS011;22291;52.250;21.228;2022-12-18T05:15:57;27.10;;;13.98;;
36253;SDS011;22291;52.250;21.228;2022-12-18T05:18:23;28.05;;;13.65;;
36253;SDS011;22291;52.250;21.228;2022-12-18T05:20:51;28.27;;;13.48;;
36253;SDS011;22291;52.250;21.228;2022-12-18T05:23:19;26.52;;;12.50;;
36253;SDS011;22291;52.250;21.228;2022-12-18T05:25:50;27.30;;;14.40;;
36253;SDS011;22291;52.250;21.228;2022-12-18T05:28:26;28.83;;;12.63;;
36253;SDS011;22291;52.250;21.228;2022-12-18T05:30:56;27.87;;;13.60;;
36253;SDS011;22291;52.250;21.228;2022-12-18T05:33:25;28.42;;;13.78;;
36253;SDS011;22291;52.250;21.228;2022-12-18T05:36:00;26.33;;;13.28;;
36253;SDS011;22291;52.250;21.228;2022-12-18T05:38:28;26.07;;;13.45;;
36253;SDS011;22291;52.250;21.228;2022-12-18T05:40:56;28.60;;;15.18;;
36253;SDS011;22291;52.250;21.228;2022-12-18T05:43:24;26.35;;;13.45;;
36253;SDS011;22291;52.250;21.228;2022-12-18T05:45:52;29.75;;;13.83;;
36253;SDS011;22291;52.250;21.228;2022-12-18T05:48:20;31.77;;;14.68;;
36253;SDS011;22291;52.250;21.228;2022-12-18T05:50:48;26.07;;;13.55;;
36253;SDS011;22291;52.250;21.228;2022-12-18T05:53:17;31.30;;;14.85;;
36253;SDS011;22291;52.250;21.228;2022-12-18T05:55:46;35.13;;;14.43;;
36253;SDS011;22291;52.250;21.228;2022-12-18T05:58:14;30.80;;;14.25;;
36253;SDS011;22291;52.250;21.228;2022-12-18T06:00:45;34.43;;;15.03;;
36253;SDS011;22291;52.250;21.228;2022-12-18T06:03:12;28.32;;;14.45;;
36253;SDS011;22291;52.250;21.228;2022-12-18T06:05:40;31.75;;;15.08;;
36253;SDS011;22291;52.250;21.228;2022-12-18T06:08:10;34.98;;;15.23;;
36253;SDS011;22291;52.250;21.228;2022-12-18T06:10:38;25.73;;;14.60;;
36253;SDS011;22291;52.250;21.228;2022-12-18T06:13:06;31.82;;;15.50;;
36253;SDS011;22291;52.250;21.228;2022-12-18T06:15:35;34.58;;;17.60;;
36253;SDS011;22291;52.250;21.228;2022-12-18T06:18:04;30.05;;;14.68;;
36253;SDS011;22291;52.250;21.228;2022-12-18T06:20:31;22.20;;;11.33;;
36253;SDS011;22291;52.250;21.228;2022-12-18T06:22:57;27.48;;;12.73;;
36253;SDS011;22291;52.250;21.228;2022-12-18T06:25:23;25.52;;;12.98;;
36253;SDS011;22291;52.250;21.228;2022-12-18T06:27:50;22.70;;;11.83;;
36253;SDS011;22291;52.250;21.228;2022-12-18T06:30:16;27.05;;;13.18;;
36253;SDS011;22291;52.250;21.228;2022-12-18T06:32:43;25.70;;;12.80;;
36253;SDS011;22291;52.250;21.228;2022-12-18T06:35:10;24.82;;;13.10;;
36253;SDS011;22291;52.250;21.228;2022-12-18T06:37:36;24.80;;;12.37;;
36253;SDS011;22291;52.250;21.228;2022-12-18T06:40:03;22.70;;;11.50;;
36253;SDS011;22291;52.250;21.228;2022-12-18T06:42:31;25.72;;;12.78;;
36253;SDS011;22291;52.250;21.228;2022-12-18T06:44:58;27.13;;;13.35;;
36253;SDS011;22291;52.250;21.228;2022-12-18T06:47:24;22.95;;;11.45;;
36253;SDS011;22291;52.250;21.228;2022-12-18T06:49:50;24.90;;;12.63;;
36253;SDS011;22291;52.250;21.228;2022-12-18T06:52:17;24.25;;;12.37;;
36253;SDS011;22291;52.250;21.228;2022-12-18T06:54:43;24.30;;;12.45;;
36253;SDS011;22291;52.250;21.228;2022-12-18T06:57:09;22.02;;;10.82;;
36253;SDS011;22291;52.250;21.228;2022-12-18T06:59:35;25.48;;;12.23;;
36253;SDS011;22291;52.250;21.228;2022-12-18T07:02:02;23.25;;;11.68;;
36253;SDS011;22291;52.250;21.228;2022-12-18T07:04:28;23.03;;;12.23;;
36253;SDS011;22291;52.250;21.228;2022-12-18T07:06:56;29.00;;;13.78;;
36253;SDS011;22291;52.250;21.228;2022-12-18T07:09:23;23.77;;;12.68;;
36253;SDS011;22291;52.250;21.228;2022-12-18T07:11:50;31.97;;;15.30;;
36253;SDS011;22291;52.250;21.228;2022-12-18T07:14:16;40.73;;;15.85;;
36253;SDS011;22291;52.250;21.228;2022-12-18T07:16:42;33.78;;;15.70;;
36253;SDS011;22291;52.250;21.228;2022-12-18T07:19:08;32.30;;;14.28;;
36253;SDS011;22291;52.250;21.228;2022-12-18T07:21:35;29.63;;;14.90;;
36253;SDS011;22291;52.250;21.228;2022-12-18T07:24:01;33.70;;;16.17;;
36253;SDS011;22291;52.250;21.228;2022-12-18T07:26:29;32.30;;;14.53;;
36253;SDS011;22291;52.250;21.228;2022-12-18T07:28:57;30.90;;;15.03;;
36253;SDS011;22291;52.250;21.228;2022-12-18T07:31:24;34.40;;;15.68;;
36253;SDS011;22291;52.250;21.228;2022-12-18T07:33:51;31.15;;;15.05;;
36253;SDS011;22291;52.250;21.228;2022-12-18T07:36:18;36.58;;;18.82;;
36253;SDS011;22291;52.250;21.228;2022-12-18T07:38:49;40.75;;;16.75;;
36253;SDS011;22291;52.250;21.228;2022-12-18T07:41:18;24.05;;;11.83;;
36253;SDS011;22291;52.250;21.228;2022-12-18T07:43:45;33.92;;;17.87;;
36253;SDS011;22291;52.250;21.228;2022-12-18T07:46:12;42.33;;;18.40;;
36253;SDS011;22291;52.250;21.228;2022-12-18T07:48:41;37.00;;;16.57;;
36253;SDS011;22291;52.250;21.228;2022-12-18T07:51:09;41.60;;;17.57;;
36253;SDS011;22291;52.250;21.228;2022-12-18T07:53:38;39.50;;;18.55;;
36253;SDS011;22291;52.250;21.228;2022-12-18T07:56:07;39.60;;;18.70;;
36253;SDS011;22291;52.250;21.228;2022-12-18T07:58:37;42.95;;;18.62;;
36253;SDS011;22291;52.250;21.228;2022-12-18T08:01:06;43.08;;;19.05;;
36253;SDS011;22291;52.250;21.228;2022-12-18T08:03:37;40.45;;;19.23;;
36253;SDS011;22291;52.250;21.228;2022-12-18T08:06:06;42.62;;;18.48;;
36253;SDS011;22291;52.250;21.228;2022-12-18T08:08:35;42.55;;;19.02;;
36253;SDS011;22291;52.250;21.228;2022-12-18T08:11:03;45.75;;;19.50;;
36253;SDS011;22291;52.250;21.228;2022-12-18T08:13:32;42.15;;;19.92;;
36253;SDS011;22291;52.250;21.228;2022-12-18T08:15:59;44.50;;;20.92;;
36253;SDS011;22291;52.250;21.228;2022-12-18T08:18:29;41.02;;;19.52;;
36253;SDS011;22291;52.250;21.228;2022-12-18T08:21:08;40.45;;;18.37;;
36253;SDS011;22291;52.250;21.228;2022-12-18T08:23:38;46.15;;;20.37;;
36253;SDS011;22291;52.250;21.228;2022-12-18T08:26:06;49.73;;;21.20;;
36253;SDS011;22291;52.250;21.228;2022-12-18T08:28:34;50.12;;;21.23;;
36253;SDS011;22291;52.250;21.228;2022-12-18T08:31:03;48.68;;;20.68;;
36253;SDS011;22291;52.250;21.228;2022-12-18T08:33:30;57.38;;;23.42;;
36253;SDS011;22291;52.250;21.228;2022-12-18T08:35:58;51.63;;;21.65;;
36253;SDS011;22291;52.250;21.228;2022-12-18T08:38:27;59.40;;;22.60;;
36253;SDS011;22291;52.250;21.228;2022-12-18T08:41:02;52.88;;;21.87;;
36253;SDS011;22291;52.250;21.228;2022-12-18T08:43:32;53.38;;;21.87;;
36253;SDS011;22291;52.250;21.228;2022-12-18T08:46:19;55.78;;;21.02;;
36253;SDS011;22291;52.250;21.228;2022-12-18T08:48:52;52.95;;;21.35;;
36253;SDS011;22291;52.250;21.228;2022-12-18T08:51:21;47.75;;;20.43;;
36253;SDS011;22291;52.250;21.228;2022-12-18T08:53:50;59.03;;;21.35;;
36253;SDS011;22291;52.250;21.228;2022-12-18T08:56:16;64.17;;;24.50;;
36253;SDS011;22291;52.250;21.228;2022-12-18T08:58:42;56.48;;;23.02;;
36253;SDS011;22291;52.250;21.228;2022-12-18T09:01:11;82.97;;;31.20;;
36253;SDS011;22291;52.250;21.228;2022-12-18T09:03:39;74.72;;;28.87;;
36253;SDS011;22291;52.250;21.228;2022-12-18T09:06:07;66.00;;;25.80;;
36253;SDS011;22291;52.250;21.228;2022-12-18T09:08:34;61.55;;;25.57;;
36253;SDS011;22291;52.250;21.228;2022-12-18T09:11:02;64.25;;;24.40;;
36253;SDS011;22291;52.250;21.228;2022-12-18T09:13:32;64.12;;;25.65;;
36253;SDS011;22291;52.250;21.228;2022-12-18T09:16:02;68.95;;;26.17;;
36253;SDS011;22291;52.250;21.228;2022-12-18T09:18:29;70.03;;;27.22;;
36253;SDS011;22291;52.250;21.228;2022-12-18T09:20:55;69.72;;;26.60;;
36253;SDS011;22291;52.250;21.228;2022-12-18T09:23:22;73.37;;;27.00;;
36253;SDS011;22291;52.250;21.228;2022-12-18T09:25:50;73.60;;;28.05;;
36253;SDS011;22291;52.250;21.228;2022-12-18T09:28:20;73.95;;;29.65;;
36253;SDS011;22291;52.250;21.228;2022-12-18T09:30:47;79.77;;;29.13;;
36253;SDS011;22291;52.250;21.228;2022-12-18T09:33:16;69.85;;;27.87;;
36253;SDS011;22291;52.250;21.228;2022-12-18T09:35:45;68.50;;;28.05;;
36253;SDS011;22291;52.250;21.228;2022-12-18T09:38:13;65.80;;;28.23;;
36253;SDS011;22291;52.250;21.228;2022-12-18T09:40:47;80.62;;;28.60;;
36253;SDS011;22291;52.250;21.228;2022-12-18T09:43:18;73.80;;;27.25;;
36253;SDS011;22291;52.250;21.228;2022-12-18T09:45:58;71.65;;;28.45;;
36253;SDS011;22291;52.250;21.228;2022-12-18T09:48:29;74.27;;;27.90;;
36253;SDS011;22291;52.250;21.228;2022-12-18T09:50:55;74.92;;;31.60;;
36253;SDS011;22291;52.250;21.228;2022-12-18T09:53:27;76.07;;;29.98;;
36253;SDS011;22291;52.250;21.228;2022-12-18T09:55:57;70.95;;;29.77;;
36253;SDS011;22291;52.250;21.228;2022-12-18T10:01:10;73.78;;;25.77;;
36253;SDS011;22291;52.250;21.228;2022-12-18T10:03:42;73.60;;;27.98;;
36253;SDS011;22291;52.250;21.228;2022-12-18T10:06:14;79.27;;;29.23;;
36253;SDS011;22291;52.250;21.228;2022-12-18T10:08:51;73.80;;;29.70;;
36253;SDS011;22291;52.250;21.228;2022-12-18T10:11:48;68.15;;;28.42;;
36253;SDS011;22291;52.250;21.228;2022-12-18T10:14:27;68.62;;;26.48;;
36253;SDS011;22291;52.250;21.228;2022-12-18T10:20:17;70.67;;;26.73;;
36253;SDS011;22291;52.250;21.228;2022-12-18T10:22:57;64.70;;;27.75;;
36253;SDS011;22291;52.250;21.228;2022-12-18T10:26:06;64.92;;;27.20;;
36253;SDS011;22291;52.250;21.228;2022-12-18T10:28:33;68.62;;;27.75;;
36253;SDS011;22291;52.250;21.228;2022-12-18T10:31:20;66.55;;;26.48;;
36253;SDS011;22291;52.250;21.228;2022-12-18T10:33:46;68.20;;;28.27;;
36253;SDS011;22291;52.250;21.228;2022-12-18T10:36:13;72.35;;;28.95;;
36253;SDS011;22291;52.250;21.228;2022-12-18T10:38:40;64.20;;;26.15;;
36253;SDS011;22291;52.250;21.228;2022-12-18T10:44:12;53.45;;;22.60;;
36253;SDS011;22291;52.250;21.228;2022-12-18T10:46:45;63.08;;;24.82;;
36253;SDS011;22291;52.250;21.228;2022-12-18T10:49:32;62.58;;;25.32;;
36253;SDS011;22291;52.250;21.228;2022-12-18T10:52:05;62.60;;;24.20;;
36253;SDS011;22291;52.250;21.228;2022-12-18T10:54:38;59.85;;;24.85;;
36253;SDS011;22291;52.250;21.228;2022-12-18T10:57:31;64.12;;;27.80;;
36253;SDS011;22291;52.250;21.228;2022-12-18T10:59:56;65.97;;;27.52;;
36253;SDS011;22291;52.250;21.228;2022-12-18T11:02:33;54.40;;;25.70;;
36253;SDS011;22291;52.250;21.228;2022-12-18T11:05:01;61.15;;;26.23;;
36253;SDS011;22291;52.250;21.228;2022-12-18T11:07:50;60.85;;;25.50;;
36253;SDS011;22291;52.250;21.228;2022-12-18T11:12:48;61.87;;;26.30;;
36253;SDS011;22291;52.250;21.228;2022-12-18T11:15:16;68.85;;;28.85;;
36253;SDS011;22291;52.250;21.228;2022-12-18T11:17:48;75.42;;;29.80;;
36253;SDS011;22291;52.250;21.228;2022-12-18T11:23:01;66.77;;;30.08;;
36253;SDS011;22291;52.250;21.228;2022-12-18T11:25:32;71.60;;;29.15;;
36253;SDS011;22291;52.250;21.228;2022-12-18T11:28:03;66.00;;;31.07;;
36253;SDS011;22291;52.250;21.228;2022-12-18T11:31:11;61.88;;;28.02;;
36253;SDS011;22291;52.250;21.228;2022-12-18T11:33:46;64.37;;;29.40;;
36253;SDS011;22291;52.250;21.228;2022-12-18T11:36:38;73.02;;;30.10;;
36253;SDS011;22291;52.250;21.228;2022-12-18T11:39:11;70.05;;;29.72;;
36253;SDS011;22291;52.250;21.228;2022-12-18T11:42:09;68.70;;;31.10;;
36253;SDS011;22291;52.250;21.228;2022-12-18T11:44:40;68.30;;;29.87;;
36253;SDS011;22291;52.250;21.228;2022-12-18T11:47:20;68.00;;;30.82;;
36253;SDS011;22291;52.250;21.228;2022-12-18T11:50:17;70.10;;;30.27;;
36253;SDS011;22291;52.250;21.228;2022-12-18T11:52:53;71.22;;;30.57;;
36253;SDS011;22291;52.250;21.228;2022-12-18T12:10:10;66.30;;;30.25;;
36253;SDS011;22291;52.250;21.228;2022-12-18T12:15:51;65.03;;;29.65;;
36253;SDS011;22291;52.250;21.228;2022-12-18T12:24:08;68.30;;;31.27;;
36253;SDS011;22291;52.250;21.228;2022-12-18T12:38:28;67.70;;;29.55;;
36253;SDS011;22291;52.250;21.228;2022-12-18T12:41:06;67.15;;;31.17;;
36253;SDS011;22291;52.250;21.228;2022-12-18T12:43:41;68.30;;;28.35;;
36253;SDS011;22291;52.250;21.228;2022-12-18T12:46:11;64.60;;;30.20;;
36253;SDS011;22291;52.250;21.228;2022-12-18T12:51:30;63.90;;;27.90;;
36253;SDS011;22291;52.250;21.228;2022-12-18T12:54:05;62.93;;;26.70;;
36253;SDS011;22291;52.250;21.228;2022-12-18T13:02:24;65.80;;;27.20;;
36253;SDS011;22291;52.250;21.228;2022-12-18T13:05:30;76.77;;;31.23;;
36253;SDS011;22291;52.250;21.228;2022-12-18T13:08:09;71.80;;;29.45;;
36253;SDS011;22291;52.250;21.228;2022-12-18T13:10:41;63.15;;;26.85;;
36253;SDS011;22291;52.250;21.228;2022-12-18T13:13:10;69.53;;;28.90;;
36253;SDS011;22291;52.250;21.228;2022-12-18T13:15:43;72.53;;;29.30;;
36253;SDS011;22291;52.250;21.228;2022-12-18T13:18:21;65.35;;;26.87;;
36253;SDS011;22291;52.250;21.228;2022-12-18T13:21:01;67.35;;;29.77;;
36253;SDS011;22291;52.250;21.228;2022-12-18T13:23:29;64.00;;;26.80;;
36253;SDS011;22291;52.250;21.228;2022-12-18T13:34:17;75.87;;;30.08;;
36253;SDS011;22291;52.250;21.228;2022-12-18T13:36:49;70.42;;;29.25;;
36253;SDS011;22291;52.250;21.228;2022-12-18T13:44:38;76.47;;;32.17;;
36253;SDS011;22291;52.250;21.228;2022-12-18T13:47:26;76.85;;;30.23;;
36253;SDS011;22291;52.250;21.228;2022-12-18T13:50:00;69.62;;;29.42;;
36253;SDS011;22291;52.250;21.228;2022-12-18T13:52:38;74.82;;;29.77;;
36253;SDS011;22291;52.250;21.228;2022-12-18T13:55:11;80.00;;;29.72;;
36253;SDS011;22291;52.250;21.228;2022-12-18T13:57:46;80.42;;;30.72;;
36253;SDS011;22291;52.250;21.228;2022-12-18T14:02:53;78.25;;;31.15;;
36253;SDS011;22291;52.250;21.228;2022-12-18T14:08:04;78.28;;;32.08;;
36253;SDS011;22291;52.250;21.228;2022-12-18T14:10:32;77.10;;;30.55;;
36253;SDS011;22291;52.250;21.228;2022-12-18T14:13:05;77.67;;;32.90;;
36253;SDS011;22291;52.250;21.228;2022-12-18T14:15:39;75.00;;;31.17;;
36253;SDS011;22291;52.250;21.228;2022-12-18T14:20:56;84.85;;;35.48;;
36253;SDS011;22291;52.250;21.228;2022-12-18T14:29:00;78.07;;;30.75;;
36253;SDS011;22291;52.250;21.228;2022-12-18T14:31:28;81.82;;;31.77;;
36253;SDS011;22291;52.250;21.228;2022-12-18T14:33:58;77.95;;;33.23;;
36253;SDS011;22291;52.250;21.228;2022-12-18T14:36:28;84.97;;;32.30;;
36253;SDS011;22291;52.250;21.228;2022-12-18T14:38:59;81.35;;;34.05;;
36253;SDS011;22291;52.250;21.228;2022-12-18T14:41:26;84.90;;;33.13;;
36253;SDS011;22291;52.250;21.228;2022-12-18T14:43:54;79.37;;;33.53;;
36253;SDS011;22291;52.250;21.228;2022-12-18T14:46:35;80.15;;;31.80;;
36253;SDS011;22291;52.250;21.228;2022-12-18T14:49:21;88.25;;;32.38;;
36253;SDS011;22291;52.250;21.228;2022-12-18T14:52:15;82.37;;;32.00;;
36253;SDS011;22291;52.250;21.228;2022-12-18T14:54:31;77.32;;;31.17;;
36253;SDS011;22291;52.250;21.228;2022-12-18T14:57:01;74.10;;;31.02;;
36253;SDS011;22291;52.250;21.228;2022-12-18T14:59:32;86.95;;;33.78;;
36253;SDS011;22291;52.250;21.228;2022-12-18T15:05:05;78.57;;;29.45;;
36253;SDS011;22291;52.250;21.228;2022-12-18T15:07:49;83.58;;;30.57;;
36253;SDS011;22291;52.250;21.228;2022-12-18T15:18:10;75.57;;;30.75;;
36253;SDS011;22291;52.250;21.228;2022-12-18T15:20:40;82.42;;;32.05;;
36253;SDS011;22291;52.250;21.228;2022-12-18T15:26:19;81.50;;;31.20;;
36253;SDS011;22291;52.250;21.228;2022-12-18T15:28:52;78.35;;;32.25;;
36253;SDS011;22291;52.250;21.228;2022-12-18T15:34:13;74.47;;;28.47;;
36253;SDS011;22291;52.250;21.228;2022-12-18T15:36:46;65.32;;;26.62;;
36253;SDS011;22291;52.250;21.228;2022-12-18T15:41:44;65.05;;;25.88;;
36253;SDS011;22291;52.250;21.228;2022-12-18T15:44:33;64.67;;;26.27;;
36253;SDS011;22291;52.250;21.228;2022-12-18T15:47:02;67.62;;;25.90;;
36253;SDS011;22291;52.250;21.228;2022-12-18T15:49:28;61.48;;;25.48;;
36253;SDS011;22291;52.250;21.228;2022-12-18T15:51:57;77.03;;;28.87;;
36253;SDS011;22291;52.250;21.228;2022-12-18T15:54:25;66.87;;;27.25;;
36253;SDS011;22291;52.250;21.228;2022-12-18T15:57:15;69.00;;;27.45;;
36253;SDS011;22291;52.250;21.228;2022-12-18T15:59:56;74.95;;;28.57;;
36253;SDS011;22291;52.250;21.228;2022-12-18T16:02:25;73.50;;;27.02;;
36253;SDS011;22291;52.250;21.228;2022-12-18T16:07:23;44.05;;;18.85;;
36253;SDS011;22291;52.250;21.228;2022-12-18T16:09:49;66.85;;;26.90;;
36253;SDS011;22291;52.250;21.228;2022-12-18T16:12:19;68.02;;;29.80;;
36253;SDS011;22291;52.250;21.228;2022-12-18T16:14:50;68.35;;;28.10;;
36253;SDS011;22291;52.250;21.228;2022-12-18T16:17:16;71.62;;;28.80;;
36253;SDS011;22291;52.250;21.228;2022-12-18T16:19:45;72.45;;;29.37;;
36253;SDS011;22291;52.250;21.228;2022-12-18T16:22:17;68.07;;;27.48;;
36253;SDS011;22291;52.250;21.228;2022-12-18T16:24:50;69.87;;;28.42;;
36253;SDS011;22291;52.250;21.228;2022-12-18T16:27:19;60.12;;;26.02;;
36253;SDS011;22291;52.250;21.228;2022-12-18T16:29:48;60.65;;;26.80;;
36253;SDS011;22291;52.250;21.228;2022-12-18T16:32:19;57.70;;;25.45;;
36253;SDS011;22291;52.250;21.228;2022-12-18T16:34:47;68.67;;;26.20;;
36253;SDS011;22291;52.250;21.228;2022-12-18T16:37:17;73.30;;;28.23;;
36253;SDS011;22291;52.250;21.228;2022-12-18T16:39:44;66.28;;;24.95;;
36253;SDS011;22291;52.250;21.228;2022-12-18T16:42:16;70.08;;;26.68;;
36253;SDS011;22291;52.250;21.228;2022-12-18T16:44:47;67.78;;;26.85;;
36253;SDS011;22291;52.250;21.228;2022-12-18T16:47:16;72.05;;;26.75;;
36253;SDS011;22291;52.250;21.228;2022-12-18T16:49:45;66.57;;;27.93;;
36253;SDS011;22291;52.250;21.228;2022-12-18T16:52:16;60.95;;;27.60;;